Time;durP1;ratioP1;P1;durP2;ratioP2;P2;SDS_P1;SDS_P2;PMS_P1;PMS_P2;Temp;Humidity;BMP_temperature;BMP_pressure;BME280_temperature;BME280_humidity;BME280_pressure;Samples;Min_cycle;Max_cycle;Signal;HPM_P1;HPM_P2
2023/06/18 00:01:23;;;;;;;6.13;5.32;;;;;;;16.76;100.00;98843.19;5037880;28;20025;-77
2023/06/18 00:03:48;;;;;;;6.75;5.13;;;;;;;16.80;100.00;98841.22;5041766;28;20025;-76
2023/06/18 00:06:14;;;;;;;6.75;4.72;;;;;;;16.82;100.00;98828.31;5031433;28;20021;-77
2023/06/18 00:08:39;;;;;;;7.07;4.85;;;;;;;16.81;100.00;98842.84;5037584;28;20083;-76
2023/06/18 00:11:05;;;;;;;9.43;5.38;;;;;;;16.74;100.00;98837.97;5050528;28;20044;-77
2023/06/18 00:13:30;;;;;;;6.55;5.85;;;;;;;16.73;100.00;98832.69;5034271;28;20562;-76
2023/06/18 00:15:56;;;;;;;6.68;5.10;;;;;;;16.73;100.00;98835.53;5051154;28;20035;-76
2023/06/18 00:18:21;;;;;;;5.90;5.05;;;;;;;16.71;100.00;98838.72;5037919;28;20033;-76
2023/06/18 00:20:48;;;;;;;5.50;4.90;;;;;;;16.72;100.00;98836.72;5014354;28;20026;-76
2023/06/18 00:23:14;;;;;;;7.43;5.45;;;;;;;16.72;100.00;98831.91;5031967;28;20036;-76
2023/06/18 00:25:39;;;;;;;6.20;5.57;;;;;;;16.69;100.00;98829.84;5031375;28;20025;-76
2023/06/18 00:28:05;;;;;;;7.85;5.13;;;;;;;16.75;100.00;98827.47;5045115;28;20029;-76
2023/06/18 00:30:31;;;;;;;8.48;5.88;;;;;;;16.74;100.00;98823.03;5034054;28;20466;-76
2023/06/18 00:32:58;;;;;;;5.65;4.80;;;;;;;16.74;100.00;98823.03;5051005;28;20484;-76
2023/06/18 00:35:23;;;;;;;6.47;4.93;;;;;;;16.77;100.00;98827.88;5038305;28;20055;-76
2023/06/18 00:37:49;;;;;;;10.60;5.10;;;;;;;16.74;100.00;98828.66;5032234;28;20126;-76
2023/06/18 00:40:15;;;;;;;6.53;5.07;;;;;;;16.77;100.00;98830.69;5030732;28;20025;-76
2023/06/18 00:42:41;;;;;;;6.65;4.75;;;;;;;16.78;100.00;98826.69;5047294;28;20040;-76
2023/06/18 00:45:11;;;;;;;7.80;4.68;;;;;;;16.78;100.00;98826.69;5017191;28;20037;-76
2023/06/18 00:47:44;;;;;;;7.93;4.43;;;;;;;16.79;100.00;98825.50;5038880;28;20048;-76
2023/06/18 00:50:12;;;;;;;5.15;4.60;;;;;;;16.80;100.00;98829.94;5040608;28;20037;-77
2023/06/18 00:52:44;;;;;;;6.70;4.45;;;;;;;16.81;100.00;98828.72;5031914;28;20014;-76
2023/06/18 00:55:12;;;;;;;8.20;5.25;;;;;;;16.84;100.00;98827.94;5031109;28;20024;-76
2023/06/18 00:57:38;;;;;;;7.13;4.97;;;;;;;16.81;100.00;98831.56;5014214;28;20057;-76
2023/06/18 01:00:10;;;;;;;6.50;4.35;;;;;;;16.82;100.00;98831.13;5014768;28;20029;-77
2023/06/18 01:02:36;;;;;;;7.63;4.93;;;;;;;16.84;100.00;98839.22;5031622;28;20053;-76
2023/06/18 01:05:02;;;;;;;5.35;4.13;;;;;;;16.90;100.00;98846.16;5013996;28;20032;-76
2023/06/18 01:07:28;;;;;;;7.18;4.70;;;;;;;16.90;100.00;98831.19;5051697;28;20023;-76
2023/06/18 01:09:54;;;;;;;6.60;4.57;;;;;;;16.92;100.00;98840.09;5051637;28;20384;-76
2023/06/18 01:12:27;;;;;;;5.45;4.40;;;;;;;16.85;100.00;98832.38;5031676;28;20025;-76
2023/06/18 01:14:56;;;;;;;8.55;4.70;;;;;;;16.84;100.00;98828.75;5026372;28;20021;-76
2023/06/18 01:17:23;;;;;;;7.05;4.68;;;;;;;16.84;100.00;98842.06;5051312;28;20028;-76
2023/06/18 01:19:57;;;;;;;7.38;4.82;;;;;;;16.83;100.00;98837.63;5051536;28;20028;-76
2023/06/18 01:22:34;;;;;;;5.07;3.75;;;;;;;16.84;99.76;98834.41;5021145;28;20033;-76
2023/06/18 01:25:03;;;;;;;5.15;4.65;;;;;;;16.82;100.00;98836.78;5013848;28;20045;-76
2023/06/18 01:27:33;;;;;;;5.05;4.53;;;;;;;16.76;99.92;98832.72;5030770;28;20025;-76
2023/06/18 01:30:00;;;;;;;5.90;4.35;;;;;;;16.82;99.28;98833.19;5016725;28;20441;-76
2023/06/18 01:32:27;;;;;;;7.80;5.18;;;;;;;16.88;98.49;98842.09;5051101;28;20430;-76
2023/06/18 01:34:55;;;;;;;6.20;5.18;;;;;;;16.88;97.75;98836.44;5051115;28;20076;-76
2023/06/18 01:37:35;;;;;;;6.60;5.18;;;;;;;16.89;98.06;98836.03;5050145;28;20025;-76
2023/06/18 01:40:19;;;;;;;6.95;4.90;;;;;;;16.90;97.17;98843.31;5031519;28;20032;-76
2023/06/18 01:42:54;;;;;;;6.88;4.60;;;;;;;16.89;96.91;98847.31;5037951;28;20074;-76
2023/06/18 01:45:31;;;;;;;18.92;5.32;;;;;;;16.87;97.14;98841.25;5040134;28;20103;-76
2023/06/18 01:48:07;;;;;;;5.63;4.97;;;;;;;16.89;96.57;98852.97;5036977;28;20029;-76
2023/06/18 01:50:35;;;;;;;8.07;5.43;;;;;;;16.95;96.33;98848.59;5055133;28;20021;-76
2023/06/18 01:53:04;;;;;;;6.82;5.63;;;;;;;16.94;95.40;98855.44;5054721;28;20017;-76
2023/06/18 01:55:33;;;;;;;10.20;5.03;;;;;;;16.96;94.90;98852.25;5019887;28;20021;-76
2023/06/18 01:58:00;;;;;;;6.10;5.50;;;;;;;17.01;94.88;98853.88;5034014;28;20104;-76
2023/06/18 02:00:26;;;;;;;6.32;5.53;;;;;;;16.98;94.65;98847.78;5035029;28;20029;-76
2023/06/18 02:02:51;;;;;;;6.65;5.80;;;;;;;17.01;94.02;98856.72;5034753;28;20040;-76
2023/06/18 02:05:18;;;;;;;7.95;6.18;;;;;;;17.04;93.89;98864.41;5046056;28;20047;-76
2023/06/18 02:07:44;;;;;;;7.22;6.45;;;;;;;17.04;93.68;98870.06;5054753;28;20407;-76
2023/06/18 02:10:09;;;;;;;9.23;6.20;;;;;;;17.11;93.13;98873.75;5053289;28;20017;-76
2023/06/18 02:12:35;;;;;;;6.75;6.05;;;;;;;17.13;92.74;98878.97;5036493;28;20096;-76
2023/06/18 02:15:00;;;;;;;7.50;6.20;;;;;;;17.22;92.98;98884.31;5048512;28;20032;-76
2023/06/18 02:17:26;;;;;;;7.95;6.18;;;;;;;17.23;92.38;98881.06;5036200;28;20025;-76
2023/06/18 02:19:52;;;;;;;8.30;6.07;;;;;;;17.24;92.72;98887.53;5054300;28;20059;-76
2023/06/18 02:22:17;;;;;;;10.43;6.13;;;;;;;17.29;92.60;98884.34;5036479;28;20056;-76
2023/06/18 02:24:43;;;;;;;10.50;6.15;;;;;;;17.22;91.93;98887.13;5021215;28;20029;-77
2023/06/18 02:27:08;;;;;;;9.52;6.70;;;;;;;17.22;91.44;98887.94;5033518;28;20033;-77
2023/06/18 02:29:34;;;;;;;12.02;7.00;;;;;;;17.23;92.58;98891.56;5048510;28;20060;-76
2023/06/18 02:31:59;;;;;;;9.65;7.10;;;;;;;17.18;92.22;98884.28;5053938;28;20017;-76
2023/06/18 02:34:27;;;;;;;11.88;7.65;;;;;;;17.18;92.06;98884.28;5048407;28;20038;-77
2023/06/18 02:36:52;;;;;;;7.82;6.90;;;;;;;17.17;91.99;98893.97;5016690;28;20388;-76
2023/06/18 02:39:19;;;;;;;10.80;8.15;;;;;;;17.15;92.67;98893.56;5016379;28;20028;-76
2023/06/18 02:41:44;;;;;;;15.48;7.65;;;;;;;17.18;92.43;98901.22;5034396;28;20022;-76
2023/06/18 02:44:10;;;;;;;7.57;6.78;;;;;;;17.15;91.76;98898.38;5032924;28;20036;-76
2023/06/18 02:46:35;;;;;;;12.00;7.57;;;;;;;17.17;92.64;98901.63;5016153;28;20036;-76
2023/06/18 02:49:00;;;;;;;8.57;7.68;;;;;;;17.12;92.47;98902.78;5016496;28;20093;-76
2023/06/18 02:51:26;;;;;;;15.75;7.63;;;;;;;17.16;92.86;98908.47;5034351;28;20032;-76
2023/06/18 02:53:51;;;;;;;8.68;7.07;;;;;;;17.11;92.88;98906.81;5034178;28;20032;-76
2023/06/18 02:56:17;;;;;;;8.07;7.28;;;;;;;17.07;93.67;98911.66;5052193;28;20411;-76
2023/06/18 02:58:42;;;;;;;14.25;8.25;;;;;;;17.12;93.38;98909.28;5025543;28;20104;-76
2023/06/18 03:01:08;;;;;;;9.68;7.53;;;;;;;17.11;94.17;98921.78;5033716;28;20083;-76
2023/06/18 03:03:33;;;;;;;10.43;8.15;;;;;;;17.09;94.89;98921.38;5033682;28;20419;-77
2023/06/18 03:05:59;;;;;;;10.50;7.53;;;;;;;17.03;95.27;98914.44;5048092;28;20028;-77
2023/06/18 03:08:25;;;;;;;8.43;7.53;;;;;;;17.01;95.45;98924.50;5053794;28;20461;-76
2023/06/18 03:10:50;;;;;;;8.88;7.97;;;;;;;16.94;96.43;98913.94;5036158;28;20025;-76
2023/06/18 03:13:16;;;;;;;9.82;7.10;;;;;;;16.95;96.51;98922.03;5034191;28;20053;-77
2023/06/18 03:15:41;;;;;;;9.40;7.78;;;;;;;17.00;96.88;98929.38;5044531;28;20030;-77
2023/06/18 03:18:07;;;;;;;11.80;8.75;;;;;;;16.90;96.81;98925.22;5015837;28;20026;-76
2023/06/18 03:20:32;;;;;;;12.98;8.32;;;;;;;16.94;96.97;98934.53;5032872;28;20087;-76
2023/06/18 03:22:58;;;;;;;9.68;8.00;;;;;;;16.91;97.57;98938.16;5032792;28;20100;-76
2023/06/18 03:25:24;;;;;;;9.77;8.48;;;;;;;16.88;98.14;98936.09;5015144;28;20067;-73
2023/06/18 03:27:50;;;;;;;10.45;8.38;;;;;;;16.90;97.73;98939.34;5033000;28;20108;-74
2023/06/18 03:30:18;;;;;;;10.43;8.80;;;;;;;16.91;97.93;98945.78;5052165;28;20048;-76
2023/06/18 03:32:44;;;;;;;9.75;8.63;;;;;;;16.93;97.54;98947.03;5052259;28;20017;-74
2023/06/18 03:35:10;;;;;;;12.00;7.53;;;;;;;16.92;97.24;98945.41;5050244;28;20033;-73
2023/06/18 03:37:38;;;;;;;11.23;8.35;;;;;;;16.93;97.84;98949.03;5047245;28;20051;-73
2023/06/18 03:40:05;;;;;;;9.40;8.10;;;;;;;16.96;98.04;98953.94;5049480;28;20495;-72
2023/06/18 03:42:30;;;;;;;9.50;8.18;;;;;;;16.91;98.52;98946.63;5042883;28;20025;-72
2023/06/18 03:44:55;;;;;;;12.32;9.05;;;;;;;16.94;98.47;98945.00;5030957;28;20127;-73
2023/06/18 03:47:21;;;;;;;12.98;9.00;;;;;;;16.92;98.37;98945.41;5034548;28;20029;-73
2023/06/18 03:49:46;;;;;;;9.35;8.35;;;;;;;16.90;98.79;98955.47;5029029;28;20022;-73
2023/06/18 03:52:12;;;;;;;12.00;8.65;;;;;;;16.93;99.21;98949.84;5009031;28;20029;-81
2023/06/18 03:54:38;;;;;;;11.45;10.25;;;;;;;16.98;98.94;98954.34;5040563;28;20055;-75
2023/06/18 03:57:04;;;;;;;12.18;10.30;;;;;;;17.01;98.49;98955.59;5046998;28;20025;-76
2023/06/18 03:59:30;;;;;;;11.93;9.95;;;;;;;17.01;98.93;98959.22;5019662;28;20024;-76
2023/06/18 04:01:56;;;;;;;13.68;10.45;;;;;;;17.08;99.08;98966.94;5033540;28;20036;-75
2023/06/18 04:04:21;;;;;;;12.50;9.38;;;;;;;17.10;98.69;98965.38;5033734;28;20025;-76
2023/06/18 04:06:47;;;;;;;10.48;9.05;;;;;;;17.11;98.32;98972.63;5033132;28;20471;-76
2023/06/18 04:09:13;;;;;;;13.07;9.52;;;;;;;17.15;98.54;98969.00;5030699;28;20072;-76
2023/06/18 04:11:39;;;;;;;13.73;10.52;;;;;;;17.12;98.55;98974.25;5031187;28;20029;-76
2023/06/18 04:14:05;;;;;;;11.85;8.32;;;;;;;17.07;98.71;98965.31;5044018;28;20021;-76
2023/06/18 04:16:30;;;;;;;11.93;9.93;;;;;;;17.14;98.79;98973.88;5016968;28;20422;-76
2023/06/18 04:18:56;;;;;;;12.13;9.68;;;;;;;17.12;98.60;98974.25;5030957;28;20037;-76
2023/06/18 04:21:21;;;;;;;11.27;9.93;;;;;;;17.15;98.93;98978.31;5030998;28;20478;-76
2023/06/18 04:23:47;;;;;;;14.30;8.95;;;;;;;17.16;98.99;98979.13;5029969;28;20022;-76
2023/06/18 04:26:12;;;;;;;11.05;9.13;;;;;;;17.22;98.14;98995.31;5013451;28;20033;-76
2023/06/18 04:28:38;;;;;;;10.38;8.82;;;;;;;17.21;98.60;98981.59;5034602;28;20489;-75
2023/06/18 04:31:03;;;;;;;9.82;8.82;;;;;;;17.18;98.52;98980.34;5031501;28;20052;-76
2023/06/18 04:33:29;;;;;;;12.88;8.45;;;;;;;17.31;98.34;98989.31;5050410;28;20029;-76
2023/06/18 04:35:54;;;;;;;9.45;8.43;;;;;;;17.33;98.54;98991.75;5046629;28;20059;-76
2023/06/18 04:38:21;;;;;;;10.48;8.70;;;;;;;17.40;98.74;99003.13;5044994;28;20026;-76
2023/06/18 04:40:48;;;;;;;9.20;8.20;;;;;;;17.34;98.49;98999.03;5031107;28;20573;-76
2023/06/18 04:43:13;;;;;;;9.95;7.88;;;;;;;17.22;98.60;98988.88;5031573;28;20526;-76
2023/06/18 04:45:39;;;;;;;11.02;7.97;;;;;;;17.34;99.04;99001.84;5036170;28;20021;-76
2023/06/18 04:48:05;;;;;;;9.85;8.18;;;;;;;17.33;98.52;99005.88;5033007;28;20041;-75
2023/06/18 04:50:30;;;;;;;8.88;7.97;;;;;;;17.37;99.58;99012.38;5050939;28;20090;-76
2023/06/18 04:52:55;;;;;;;9.77;7.63;;;;;;;17.36;100.00;99019.22;5032521;28;20017;-76
2023/06/18 04:55:22;;;;;;;10.40;8.85;;;;;;;17.29;99.56;99013.53;5031481;28;20403;-76
2023/06/18 04:57:47;;;;;;;11.00;8.75;;;;;;;17.45;100.00;99030.22;5024084;28;21060;-76
2023/06/18 05:05:47;;;;;;;9.77;8.77;;;;;;;17.43;100.00;99024.94;5026377;28;20057;-81
2023/06/18 05:08:13;;;;;;;9.75;8.68;;;;;;;17.40;100.00;99025.75;4993885;28;20030;-81
2023/06/18 05:10:38;;;;;;;10.73;9.00;;;;;;;17.40;100.00;99029.34;5011619;28;20030;-81
2023/06/18 05:13:04;;;;;;;11.68;9.18;;;;;;;17.49;100.00;99036.69;5011350;28;20447;-81
2023/06/18 05:15:29;;;;;;;10.82;9.73;;;;;;;17.52;100.00;99028.25;5001836;28;20025;-81
2023/06/18 05:17:54;;;;;;;9.35;8.43;;;;;;;17.60;100.00;99045.25;5029077;28;20084;-77
2023/06/18 05:20:20;;;;;;;11.50;9.18;;;;;;;17.54;100.00;99045.63;5033627;28;20025;-81
2023/06/18 05:22:45;;;;;;;10.48;9.48;;;;;;;17.60;100.00;99043.25;5017078;28;20018;-79
2023/06/18 05:25:11;;;;;;;12.90;9.98;;;;;;;17.65;100.00;99036.41;5038124;28;20426;-81
2023/06/18 05:27:36;;;;;;;16.85;9.98;;;;;;;17.72;100.00;99046.94;5016113;28;20044;-82
2023/06/18 05:30:03;;;;;;;12.32;9.50;;;;;;;17.91;100.00;99054.34;5017085;28;20462;-82
2023/06/18 05:32:28;;;;;;;12.45;9.10;;;;;;;18.12;100.00;99052.88;5016737;28;20056;-82
2023/06/18 05:34:55;;;;;;;9.55;8.65;;;;;;;18.01;100.00;99056.41;5033369;28;20052;-82
2023/06/18 05:37:21;;;;;;;10.07;9.00;;;;;;;18.07;100.00;99062.53;5014862;28;20541;-76
2023/06/18 05:39:46;;;;;;;10.88;9.30;;;;;;;18.09;100.00;99069.41;5034557;28;20456;-83
2023/06/18 05:42:12;;;;;;;10.48;9.38;;;;;;;18.31;100.00;99063.06;5029821;28;20083;-82
2023/06/18 05:44:37;;;;;;;12.15;9.45;;;;;;;18.33;100.00;99061.44;5031869;28;20481;-81
2023/06/18 05:47:03;;;;;;;12.80;9.20;;;;;;;18.36;99.30;99068.34;5030834;28;20030;-80
2023/06/18 05:49:28;;;;;;;11.18;9.20;;;;;;;18.36;97.98;99077.66;5013739;28;20091;-81
2023/06/18 05:51:54;;;;;;;9.60;8.60;;;;;;;18.28;99.12;99080.81;5031447;28;20028;-81
2023/06/18 05:54:19;;;;;;;12.15;9.60;;;;;;;18.30;97.65;99086.91;5027819;28;20066;-80
2023/06/18 05:56:45;;;;;;;12.10;9.38;;;;;;;18.28;96.54;99080.81;5014145;28;20029;-80
2023/06/18 05:59:11;;;;;;;16.02;9.40;;;;;;;18.29;96.22;99079.63;5030628;28;20025;-78
2023/06/18 06:01:37;;;;;;;10.20;9.20;;;;;;;18.41;96.87;99089.78;5014631;28;20025;-77
2023/06/18 06:04:03;;;;;;;17.95;10.68;;;;;;;18.43;97.20;99087.38;5030143;28;20057;-78
2023/06/18 06:06:29;;;;;;;11.07;9.48;;;;;;;18.42;94.06;99091.41;5031201;28;20018;-79
2023/06/18 06:08:55;;;;;;;16.05;10.25;;;;;;;18.48;94.23;99084.16;5031545;28;20047;-77
2023/06/18 06:11:20;;;;;;;10.10;9.05;;;;;;;18.45;92.96;99093.44;5015080;28;20036;-78
2023/06/18 06:13:45;;;;;;;20.13;10.00;;;;;;;18.54;93.74;99088.22;5029942;28;20018;-77
2023/06/18 06:16:11;;;;;;;9.75;8.75;;;;;;;18.61;93.50;99087.44;5022961;28;20045;-78
2023/06/18 06:18:37;;;;;;;11.93;9.50;;;;;;;18.75;93.45;99078.97;5025766;28;20091;-78
2023/06/18 06:21:02;;;;;;;12.15;10.43;;;;;;;18.82;91.48;99091.56;5030367;28;20034;-76
2023/06/18 06:23:30;;;;;;;12.75;10.75;;;;;;;18.80;89.81;99091.94;5030974;28;20033;-78
2023/06/18 06:25:55;;;;;;;12.55;10.10;;;;;;;18.88;88.98;99093.59;5011365;28;20033;-77
2023/06/18 06:28:21;;;;;;;12.52;9.85;;;;;;;19.04;87.96;99092.44;5029633;28;20029;-78
2023/06/18 06:30:46;;;;;;;17.73;11.88;;;;;;;19.03;88.25;99093.66;5028173;28;20087;-78
2023/06/18 06:33:12;;;;;;;11.25;9.82;;;;;;;19.00;88.77;99108.63;5021549;28;20021;-79
2023/06/18 06:35:37;;;;;;;12.63;11.00;;;;;;;19.05;89.55;99094.06;5028618;28;20031;-77
2023/06/18 06:38:03;;;;;;;10.75;9.75;;;;;;;19.10;88.21;99102.16;5024701;28;20041;-75
2023/06/18 06:40:28;;;;;;;12.85;10.70;;;;;;;19.11;87.47;99105.81;5030489;28;20057;-78
2023/06/18 06:42:53;;;;;;;12.20;9.85;;;;;;;19.03;88.51;99102.16;5026691;28;20033;-77
2023/06/18 06:45:19;;;;;;;11.85;10.50;;;;;;;19.03;87.57;99111.47;5012732;28;20095;-76
2023/06/18 06:47:46;;;;;;;12.07;10.30;;;;;;;18.86;87.90;99110.19;5011794;28;21355;-75
2023/06/18 06:50:12;;;;;;;15.10;12.00;;;;;;;19.10;88.33;99116.34;5012617;28;20482;-79
2023/06/18 06:52:37;;;;;;;13.55;10.70;;;;;;;19.11;88.35;99105.81;5029523;28;20030;-74
2023/06/18 06:55:06;;;;;;;20.65;11.27;;;;;;;19.18;88.29;99117.16;5030165;28;20498;-73
2023/06/18 06:57:31;;;;;;;443.45;50.83;;;;;;;19.18;87.30;99108.66;5029307;28;20029;-77
2023/06/18 06:59:57;;;;;;;18.67;10.57;;;;;;;19.20;87.26;99115.56;5025091;28;20044;-80
2023/06/18 07:02:22;;;;;;;18.45;11.20;;;;;;;19.53;86.31;99126.91;5011969;28;20112;-78
2023/06/18 07:04:48;;;;;;;15.40;10.88;;;;;;;19.76;84.12;99125.69;5028861;28;20061;-77
2023/06/18 07:07:14;;;;;;;18.52;11.00;;;;;;;19.84;83.14;99127.28;5029038;28;20064;-75
2023/06/18 07:09:40;;;;;;;20.60;10.13;;;;;;;19.87;82.66;99120.00;5011124;28;20053;-77
2023/06/18 07:12:06;;;;;;;19.45;10.68;;;;;;;20.03;83.37;99128.13;5029857;28;20029;-75
2023/06/18 07:14:32;;;;;;;17.60;10.40;;;;;;;20.00;82.89;99129.75;5030097;28;20470;-80
2023/06/18 07:16:58;;;;;;;17.60;10.65;;;;;;;20.00;83.70;99128.94;5024042;28;20025;-79
2023/06/18 07:19:24;;;;;;;14.00;10.40;;;;;;;19.96;82.26;99133.81;5026578;28;20038;-78
2023/06/18 07:21:53;;;;;;;16.48;10.48;;;;;;;19.73;83.02;99126.50;5011008;28;20087;-79
2023/06/18 07:24:20;;;;;;;12.73;11.13;;;;;;;19.88;83.62;99132.97;5005184;28;20033;-76
2023/06/18 07:26:46;;;;;;;13.48;10.45;;;;;;;19.93;84.66;99132.63;5025292;28;20035;-75
2023/06/18 07:29:11;;;;;;;16.92;10.25;;;;;;;20.14;83.42;99139.44;5028255;28;20492;-77
2023/06/18 07:31:36;;;;;;;10.35;9.32;;;;;;;20.21;83.12;99139.44;5011538;28;20029;-81
2023/06/18 07:34:02;;;;;;;17.17;10.32;;;;;;;20.45;84.26;99136.94;5025758;28;20095;-74
2023/06/18 07:36:27;;;;;;;14.23;10.27;;;;;;;20.48;83.01;99136.94;5029339;28;20100;-74
2023/06/18 07:38:53;;;;;;;16.35;10.65;;;;;;;20.59;81.89;99134.03;5031625;28;20029;-76
2023/06/18 07:41:19;;;;;;;24.95;9.70;;;;;;;20.76;82.83;99132.34;5013100;28;20116;-73
2023/06/18 07:43:44;;;;;;;19.10;10.18;;;;;;;20.81;80.69;99135.97;5029336;28;20040;-80
2023/06/18 07:46:10;;;;;;;9.93;8.52;;;;;;;20.66;79.95;99150.25;5014385;28;20037;-75
2023/06/18 07:48:36;;;;;;;12.95;10.32;;;;;;;20.57;81.88;99138.50;5030945;28;20029;-78
2023/06/18 07:51:03;;;;;;;18.60;11.30;;;;;;;20.45;82.12;99149.13;5013414;28;20534;-74
2023/06/18 07:53:28;;;;;;;12.23;9.68;;;;;;;20.59;81.44;99150.31;5027550;28;20408;-75
2023/06/18 07:55:54;;;;;;;12.25;9.77;;;;;;;20.70;80.39;99150.25;5009142;28;20032;-73
2023/06/18 07:58:20;;;;;;;13.35;10.10;;;;;;;20.77;80.93;99136.81;5030854;28;20033;-76
2023/06/18 08:00:45;;;;;;;15.05;10.93;;;;;;;21.05;80.67;99148.47;5029422;28;20171;-77
2023/06/18 08:03:11;;;;;;;11.50;9.63;;;;;;;20.99;79.75;99147.28;5013147;28;20492;-78
2023/06/18 08:05:36;;;;;;;16.55;9.73;;;;;;;21.09;80.06;99145.63;5031654;28;20081;-79
2023/06/18 08:08:02;;;;;;;13.00;9.75;;;;;;;20.91;80.52;99152.19;5014103;28;20041;-74
2023/06/18 08:10:27;;;;;;;10.95;9.70;;;;;;;20.76;81.80;99157.13;5030630;28;20075;-75
2023/06/18 08:12:53;;;;;;;23.15;10.57;;;;;;;20.89;80.35;99163.19;5027189;28;20044;-74
2023/06/18 08:15:18;;;;;;;21.13;11.35;;;;;;;20.89;79.51;99152.63;5013458;28;20036;-76
2023/06/18 08:17:44;;;;;;;16.52;10.65;;;;;;;21.08;79.73;99161.88;5030482;28;20045;-78
2023/06/18 08:20:10;;;;;;;18.45;10.02;;;;;;;21.14;78.49;99156.56;5026953;28;20067;-80
2023/06/18 08:22:35;;;;;;;22.10;10.35;;;;;;;21.06;79.20;99170.00;5031729;28;20083;-77
2023/06/18 08:25:01;;;;;;;17.08;10.82;;;;;;;21.05;79.27;99174.06;5017942;28;20021;-81
2023/06/18 08:27:26;;;;;;;13.75;9.52;;;;;;;20.75;80.15;99164.00;5031105;28;20447;-77
2023/06/18 08:29:52;;;;;;;10.38;9.35;;;;;;;20.85;80.19;99177.41;5030375;28;20025;-83
2023/06/18 08:32:17;;;;;;;12.30;9.90;;;;;;;20.91;79.58;99169.25;5013596;28;20024;-76
2023/06/18 08:34:45;;;;;;;19.08;10.07;;;;;;;21.10;78.94;99170.00;5030546;28;20388;-76
2023/06/18 08:37:11;;;;;;;24.98;9.43;;;;;;;21.10;78.35;99173.63;5012478;28;20029;-80
2023/06/18 08:39:36;;;;;;;12.65;8.93;;;;;;;20.82;78.90;99178.22;5030123;28;20104;-81
2023/06/18 08:42:02;;;;;;;9.73;8.65;;;;;;;20.93;79.14;99185.91;5009628;28;20042;-77
2023/06/18 08:44:29;;;;;;;10.70;9.65;;;;;;;20.87;78.30;99182.69;5021695;28;20496;-75
2023/06/18 08:47:00;;;;;;;10.90;8.80;;;;;;;20.72;78.92;99185.56;5016805;28;20030;-82
2023/06/18 08:49:27;;;;;;;10.27;9.20;;;;;;;20.78;78.85;99180.25;5011673;28;20021;-80
2023/06/18 08:51:54;;;;;;;11.18;8.65;;;;;;;20.82;77.61;99181.06;5028902;28;20573;-82
2023/06/18 08:54:22;;;;;;;13.73;9.52;;;;;;;20.95;77.96;99189.16;5033132;28;20083;-76
2023/06/18 08:56:53;;;;;;;17.40;10.65;;;;;;;20.93;77.64;99181.03;5019839;28;20029;-87
2023/06/18 08:59:18;;;;;;;9.85;8.85;;;;;;;20.71;77.30;99189.63;5022306;28;20029;-81
2023/06/18 09:01:45;;;;;;;9.98;8.95;;;;;;;20.97;76.09;99181.81;5037278;28;20087;-81
2023/06/18 09:04:12;;;;;;;10.00;9.00;;;;;;;20.85;75.39;99188.78;5035148;28;20055;-76
2023/06/18 09:06:39;;;;;;;9.25;8.35;;;;;;;20.84;75.48;99192.84;5017274;28;20115;-82
2023/06/18 09:09:05;;;;;;;9.98;8.98;;;;;;;20.92;76.29;99192.81;5011505;28;20029;-81
2023/06/18 09:11:32;;;;;;;10.80;8.38;;;;;;;20.66;75.89;99192.06;5027454;28;20542;-80
2023/06/18 09:13:58;;;;;;;11.25;9.45;;;;;;;20.89;75.87;99188.75;5031442;28;20101;-81
2023/06/18 09:16:24;;;;;;;10.65;9.35;;;;;;;20.87;75.90;99186.31;5034906;28;20105;-79
2023/06/18 09:18:50;;;;;;;11.98;9.15;;;;;;;21.07;75.45;99182.19;5032939;28;20029;-76
2023/06/18 09:21:38;;;;;;;12.25;8.98;;;;;;;21.01;74.55;99190.34;5034740;28;20404;-78
2023/06/18 09:24:14;;;;;;;9.13;8.23;;;;;;;21.14;74.96;99191.50;5025809;28;20099;-81
2023/06/18 09:26:40;;;;;;;14.55;10.35;;;;;;;21.49;74.29;99188.03;5029049;28;20055;-78
2023/06/18 09:29:07;;;;;;;10.80;8.88;;;;;;;21.44;73.68;99189.28;5029396;28;20037;-79
2023/06/18 09:31:34;;;;;;;12.30;9.07;;;;;;;21.58;73.31;99183.50;5031024;28;20095;-80
2023/06/18 09:34:18;;;;;;;20.70;12.10;;;;;;;21.80;72.12;99188.25;5029327;28;20033;-81
2023/06/18 09:36:45;;;;;;;10.10;9.10;;;;;;;21.90;72.06;99178.81;5025118;28;20403;-78
2023/06/18 09:39:25;;;;;;;13.68;8.07;;;;;;;21.82;71.42;99185.78;5007389;28;20123;-77
2023/06/18 09:41:52;;;;;;;12.30;9.52;;;;;;;22.12;72.50;99178.63;5023861;28;20037;-80
2023/06/18 09:44:19;;;;;;;11.23;10.13;;;;;;;22.09;71.44;99188.00;5032346;28;20033;-78
2023/06/18 09:46:47;;;;;;;15.45;10.38;;;;;;;22.17;71.25;99175.28;5014332;28;20059;-74
2023/06/18 09:49:15;;;;;;;14.25;9.65;;;;;;;22.09;71.27;99179.47;5031952;28;20040;-77
2023/06/18 09:51:41;;;;;;;10.65;8.05;;;;;;;21.65;70.65;99179.78;5014611;28;20058;-83
2023/06/18 09:54:07;;;;;;;10.10;9.00;;;;;;;21.76;72.64;99174.03;5010569;28;20459;-79
2023/06/18 09:56:33;;;;;;;10.60;9.05;;;;;;;21.85;71.48;99170.72;5013751;28;20037;-82
2023/06/18 09:59:01;;;;;;;10.90;9.25;;;;;;;21.84;72.11;99175.59;5033290;28;20037;-80
2023/06/18 10:01:29;;;;;;;11.85;8.13;;;;;;;21.81;72.34;99167.09;5030366;28;20113;-76
2023/06/18 10:03:55;;;;;;;11.88;8.30;;;;;;;21.82;71.75;99180.09;5013936;28;20471;-80
2023/06/18 10:06:22;;;;;;;8.90;8.00;;;;;;;21.82;72.32;99180.09;5030794;28;20033;-78
2023/06/18 10:08:50;;;;;;;8.55;7.65;;;;;;;21.71;71.80;99175.28;5011689;28;20033;-77
2023/06/18 10:11:17;;;;;;;12.02;8.00;;;;;;;21.86;71.82;99169.50;5029395;28;20025;-78
2023/06/18 10:13:48;;;;;;;8.45;7.38;;;;;;;21.68;73.02;99178.97;5026596;28;20092;-76
2023/06/18 10:16:18;;;;;;;9.43;8.27;;;;;;;21.76;73.12;99187.47;5027680;28;20096;-76
2023/06/18 10:18:58;;;;;;;8.07;7.30;;;;;;;21.80;72.52;99171.97;5029145;28;20484;-76
2023/06/18 10:21:25;;;;;;;8.52;7.63;;;;;;;21.83;72.41;99170.31;5020519;28;20041;-76
2023/06/18 10:24:15;;;;;;;12.32;6.90;;;;;;;21.80;72.49;99174.00;5021794;28;20025;-77
2023/06/18 10:26:41;;;;;;;11.55;7.07;;;;;;;21.97;73.14;99170.22;5020732;28;20056;-77
2023/06/18 10:29:09;;;;;;;8.18;7.38;;;;;;;22.03;72.42;99173.41;5001858;28;20029;-77
2023/06/18 10:31:37;;;;;;;9.63;7.40;;;;;;;21.88;73.41;99167.03;5019552;28;20025;-76
2023/06/18 10:34:02;;;;;;;8.88;6.88;;;;;;;21.81;72.55;99162.22;4995198;28;20033;-76
2023/06/18 10:36:28;;;;;;;7.93;7.13;;;;;;;21.87;73.21;99162.56;5007435;28;20069;-77
2023/06/18 10:38:56;;;;;;;8.90;7.75;;;;;;;21.91;72.61;99157.66;5023769;28;20018;-77
2023/06/18 10:41:22;;;;;;;7.85;7.05;;;;;;;21.98;72.12;99159.63;5022526;28;20034;-76
2023/06/18 10:43:50;;;;;;;7.82;6.50;;;;;;;21.95;72.40;99155.56;5022282;28;20079;-77
2023/06/18 10:46:16;;;;;;;12.65;7.88;;;;;;;21.97;72.75;99158.81;5009743;28;20025;-73
2023/06/18 10:49:13;;;;;;;10.95;7.65;;;;;;;21.99;73.27;99166.94;5023057;28;20021;-76
2023/06/18 10:51:38;;;;;;;17.35;8.05;;;;;;;21.99;73.54;99156.34;5025284;28;20479;-77
2023/06/18 10:54:26;;;;;;;7.90;7.20;;;;;;;21.78;73.66;99160.22;5002969;28;20028;-76
2023/06/18 10:56:54;;;;;;;7.82;6.82;;;;;;;21.95;72.59;99155.56;5021981;28;20053;-77
2023/06/18 10:59:42;;;;;;;7.47;6.78;;;;;;;21.95;74.02;99161.25;5012915;28;20401;-76
2023/06/18 11:02:08;;;;;;;8.75;7.25;;;;;;;22.20;73.64;99148.81;5003616;28;20022;-78
2023/06/18 11:04:34;;;;;;;8.35;7.43;;;;;;;22.09;73.13;99154.63;4994394;28;20045;-77
2023/06/18 11:07:23;;;;;;;11.27;7.45;;;;;;;22.16;72.51;99139.50;5006942;28;20029;-77
2023/06/18 11:10:02;;;;;;;9.35;8.13;;;;;;;22.01;72.63;99133.13;5009380;28;20017;-78
2023/06/18 11:12:30;;;;;;;8.40;6.88;;;;;;;21.91;73.44;99146.25;5001128;28;20036;-77
2023/06/18 11:15:16;;;;;;;7.85;6.85;;;;;;;22.15;71.60;99147.25;4999736;28;20025;-77
2023/06/18 11:17:53;;;;;;;9.57;7.32;;;;;;;22.26;72.70;99144.28;4989329;28;20053;-76
2023/06/18 11:20:20;;;;;;;9.35;7.20;;;;;;;22.32;72.26;99138.13;4994785;28;20021;-77
2023/06/18 11:22:47;;;;;;;9.98;7.15;;;;;;;22.42;71.84;99138.00;4995129;28;20026;-78
2023/06/18 11:25:14;;;;;;;7.22;6.47;;;;;;;22.41;71.67;99133.56;5005486;28;20113;-77
2023/06/18 11:27:46;;;;;;;7.75;6.72;;;;;;;22.70;71.72;99129.59;5002927;28;20417;-78
2023/06/18 11:30:17;;;;;;;10.48;7.25;;;;;;;22.58;70.95;99126.06;5001440;28;20117;-78
2023/06/18 11:32:43;;;;;;;7.65;6.85;;;;;;;22.69;72.22;99133.66;5000894;28;20021;-77